createdAt,value
2019-01-27T00:01:28.334Z,73.95
2019-01-27T00:06:34.410Z,73.65
2019-01-27T00:11:40.248Z,72.87
2019-01-27T00:16:47.282Z,72.26
2019-01-27T00:21:52.751Z,72.77
2019-01-27T00:26:58.653Z,73.23
2019-01-27T00:32:02.912Z,74.47
2019-01-27T00:37:08.834Z,73.32
2019-01-27T00:42:13.472Z,73.97
2019-01-27T00:47:18.161Z,74.06
2019-01-27T00:52:25.906Z,73.45
2019-01-27T00:57:30.902Z,72.58
2019-01-27T01:02:37.984Z,73.06
2019-01-27T01:07:46.660Z,73.57
2019-01-27T01:12:52.873Z,73.74
2019-01-27T01:17:58.475Z,73.82
2019-01-27T01:23:03.142Z,73.75
2019-01-27T01:28:08.281Z,74.02
2019-01-27T01:33:12.614Z,74.52
2019-01-27T01:38:20.355Z,74.59
2019-01-27T01:43:25.219Z,75.06
2019-01-27T01:48:33.363Z,74.77
2019-01-27T01:53:39.159Z,75.36
2019-01-27T01:58:44.664Z,75.29
2019-01-27T02:03:50.388Z,75.70
2019-01-27T02:08:56.082Z,75.92
2019-01-27T02:14:03.029Z,76.19
2019-01-27T02:19:07.727Z,76.66
2019-01-27T02:24:12.940Z,76.69
2019-01-27T02:29:20.366Z,76.60
2019-01-27T02:34:26.450Z,76.75
2019-01-27T02:39:32.679Z,76.65
2019-01-27T02:44:37.113Z,76.22
2019-01-27T02:49:42.494Z,75.80
2019-01-27T02:54:47.120Z,75.26
2019-01-27T02:59:52.834Z,75.09
2019-01-27T03:04:58.853Z,75.63
2019-01-27T03:10:05.027Z,75.88
2019-01-27T03:15:10.534Z,76.17
2019-01-27T03:20:15.182Z,76.50
2019-01-27T03:25:19.488Z,76.31
2019-01-27T03:30:26.434Z,75.34
2019-01-27T03:35:32.217Z,75.31
2019-01-27T03:40:38.848Z,75.40
2019-01-27T03:45:43.844Z,75.58
2019-01-27T03:50:48.404Z,76.04
2019-01-27T03:55:53.765Z,75.64
2019-01-27T04:00:58.155Z,75.97
2019-01-27T04:06:03.044Z,75.95
2019-01-27T04:11:07.939Z,76.31
2019-01-27T04:16:13.390Z,76.12
2019-01-27T04:21:17.954Z,76.62
2019-01-27T04:26:22.018Z,75.71
2019-01-27T04:31:26.432Z,75.42
2019-01-27T04:36:31.329Z,74.90
2019-01-27T04:41:38.291Z,74.56
2019-01-27T04:46:42.845Z,74.47
2019-01-27T04:51:47.169Z,73.68
2019-01-27T04:56:53.567Z,73.64
2019-01-27T05:01:59.425Z,71.54
2019-01-27T05:07:04.067Z,69.84
2019-01-27T05:12:08.394Z,66.53
2019-01-27T05:17:13.797Z,65.15
2019-01-27T05:22:20.703Z,61.05
2019-01-27T05:27:25.719Z,59.35
2019-01-27T05:32:50.348Z,57.65
2019-01-27T05:37:55.278Z,69.14
2019-01-27T05:43:00.630Z,79.11
2019-01-27T05:48:04.834Z,88.91
2019-01-27T05:53:10.866Z,92.86
2019-01-27T05:58:15.068Z,95.27
2019-01-27T06:03:19.944Z,95.51
2019-01-27T06:08:23.997Z,95.82
2019-01-27T06:13:33.330Z,97.07
2019-01-27T06:18:38.619Z,97.62
2019-01-27T06:23:43.724Z,97.43
2019-01-27T06:28:48.458Z,97.88
2019-01-27T06:34:06.313Z,97.75
2019-01-27T06:39:10.613Z,97.58
2019-01-27T06:44:15.224Z,97.37
2019-01-27T06:49:19.709Z,95.95
2019-01-27T06:54:23.970Z,95.76
2019-01-27T06:59:58.103Z,95.38
2019-01-27T07:05:15.452Z,95.68
2019-01-27T07:10:42.865Z,95.50
2019-01-27T07:16:12.542Z,94.31
2019-01-27T07:21:27.124Z,92.95
2019-01-27T07:26:53.505Z,91.47
2019-01-27T07:32:20.587Z,91.50
2019-01-27T07:37:36.370Z,91.37
2019-01-27T07:42:50.036Z,89.86
2019-01-27T07:48:23.218Z,89.45
2019-01-27T07:53:58.740Z,90.00
2019-01-27T07:59:33.608Z,90.09
2019-01-27T08:05:03.113Z,88.20
2019-01-27T08:10:36.976Z,86.52
2019-01-27T08:16:06.784Z,85.55
2019-01-27T08:21:40.105Z,86.56
2019-01-27T08:26:55.613Z,84.30
2019-01-27T08:32:06.974Z,83.22
2019-01-27T08:37:25.297Z,82.53
2019-01-27T08:42:48.805Z,81.83
2019-01-27T08:47:52.864Z,79.60
2019-01-27T08:52:57.238Z,79.37
2019-01-27T08:58:01.438Z,80.73
2019-01-27T09:03:16.908Z,79.05
2019-01-27T09:08:50.098Z,77.48
2019-01-27T09:14:10.911Z,78.74
2019-01-27T09:19:33.902Z,78.55
2019-01-27T09:24:49.223Z,79.02
2019-01-27T09:30:13.307Z,80.05
2019-01-27T09:35:27.821Z,79.17
2019-01-27T09:40:52.066Z,78.28
2019-01-27T09:46:22.365Z,78.03
2019-01-27T09:51:51.436Z,77.04
2019-01-27T09:57:18.054Z,76.91
2019-01-27T10:02:47.332Z,74.95
2019-01-27T10:08:13.344Z,75.25
2019-01-27T10:13:30.908Z,76.46
2019-01-27T10:19:00.835Z,74.83
2019-01-27T10:24:23.378Z,74.56
2019-01-27T10:30:02.842Z,73.23
2019-01-27T10:35:21.506Z,73.39
2019-01-27T10:40:54.778Z,73.34
2019-01-27T10:46:27.394Z,72.64
2019-01-27T10:51:44.126Z,72.95
2019-01-27T10:57:03.441Z,73.96
2019-01-27T11:02:36.716Z,74.57
2019-01-27T11:07:55.399Z,74.44
2019-01-27T11:13:31.512Z,75.75
2019-01-27T11:18:58.423Z,74.10
2019-01-27T11:24:23.080Z,72.42
2019-01-27T11:29:47.570Z,71.41
2019-01-27T11:35:26.179Z,72.37
2019-01-27T11:41:08.839Z,70.41
2019-01-27T11:46:31.207Z,70.52
2019-01-27T11:51:49.061Z,70.45
2019-01-27T11:56:54.171Z,71.22
2019-01-27T12:01:59.437Z,70.91
2019-01-27T12:07:07.133Z,70.04
2019-01-27T12:12:15.578Z,69.50
2019-01-27T12:17:22.218Z,69.61
2019-01-27T12:22:28.165Z,68.33
2019-01-27T12:27:33.780Z,68.58
2019-01-27T12:32:49.016Z,69.40
2019-01-27T12:37:54.623Z,67.96
2019-01-27T12:43:02.262Z,67.07
2019-01-27T12:48:06.559Z,66.88
2019-01-27T12:53:12.628Z,65.09
2019-01-27T12:58:17.113Z,66.38
2019-01-27T13:03:23.945Z,63.51
2019-01-27T13:08:28.225Z,65.62
2019-01-27T13:13:32.420Z,66.33
2019-01-27T13:18:36.461Z,67.37
2019-01-27T13:23:40.668Z,65.17
2019-01-27T13:28:44.807Z,64.76
2019-01-27T13:33:50.377Z,63.17
2019-01-27T13:38:54.416Z,63.19
2019-01-27T13:43:58.501Z,65.31
2019-01-27T13:49:02.682Z,64.62
2019-01-27T13:54:06.654Z,66.19
2019-01-27T14:01:26.552Z,65.19
2019-01-27T14:06:49.045Z,67.19
2019-01-27T14:12:12.919Z,67.82
2019-01-27T14:17:36.648Z,68.57
2019-01-27T14:24:42.565Z,69.61
2019-01-27T14:30:07.035Z,70.33
2019-01-27T14:35:29.515Z,71.38
2019-01-27T14:40:34.380Z,70.59
2019-01-27T14:45:39.819Z,71.36
2019-01-27T14:50:46.298Z,71.26
2019-01-27T14:55:50.306Z,70.81
2019-01-27T15:00:54.543Z,71.07
2019-01-27T15:05:59.461Z,71.35
2019-01-27T15:11:21.895Z,72.35
2019-01-27T15:16:26.275Z,72.76
2019-01-27T15:21:30.507Z,72.57
2019-01-27T15:26:35.509Z,73.10
2019-01-27T15:31:39.895Z,73.70
2019-01-27T15:41:40.428Z,73.91
2019-01-27T15:46:45.834Z,76.78
2019-01-27T15:51:49.583Z,79.12
2019-01-27T15:56:53.642Z,80.47
2019-01-27T16:01:57.408Z,80.94
2019-01-27T16:07:01.242Z,81.18
2019-01-27T16:12:05.640Z,81.86
2019-01-27T16:17:09.613Z,81.48
2019-01-27T16:22:14.306Z,81.65
2019-01-27T16:27:18.075Z,81.71
2019-01-27T16:32:34.965Z,81.66
2019-01-27T16:37:40.093Z,80.80
2019-01-27T16:42:44.409Z,80.80
2019-01-27T16:47:49.354Z,80.71
2019-01-27T16:53:03.983Z,80.41
2019-01-27T16:58:07.881Z,79.83
2019-01-27T17:03:11.662Z,80.12
2019-01-27T17:08:17.823Z,80.49
2019-01-27T17:13:22.974Z,82.79
2019-01-27T17:18:29.271Z,79.30
2019-01-27T17:23:34.110Z,79.09
2019-01-27T17:28:43.023Z,79.18
2019-01-27T17:33:56.000Z,79.48
2019-01-27T17:39:09.466Z,79.53
2019-01-27T17:44:15.598Z,80.24
2019-01-27T17:49:20.246Z,81.12
2019-01-27T17:54:26.789Z,81.57
2019-01-27T17:59:40.011Z,81.75
2019-01-27T18:04:53.643Z,81.47
2019-01-27T18:10:31.369Z,81.09
2019-01-27T18:15:44.008Z,81.22
2019-01-27T18:20:52.933Z,80.09
2019-01-27T18:25:58.717Z,79.82
2019-01-27T18:31:03.131Z,79.65
2019-01-27T18:36:09.680Z,79.74
2019-01-27T18:41:17.243Z,79.28
2019-01-27T18:46:22.085Z,79.49
2019-01-27T18:51:29.815Z,79.19
2019-01-27T18:57:05.648Z,79.34
2019-01-27T19:02:32.212Z,78.54
2019-01-27T19:08:01.165Z,78.71
2019-01-27T19:13:32.079Z,78.74
2019-01-27T19:19:03.316Z,79.56
2019-01-27T19:24:33.492Z,80.26
2019-01-27T19:30:02.625Z,81.67
2019-01-27T19:35:21.806Z,81.66
2019-01-27T19:40:45.821Z,82.85
2019-01-27T19:46:16.529Z,82.99
2019-01-27T19:51:43.668Z,83.34
2019-01-27T19:57:22.192Z,82.70
2019-01-27T20:02:36.708Z,82.17
2019-01-27T20:08:00.764Z,82.20
2019-01-27T20:13:17.041Z,81.91
2019-01-27T20:18:39.229Z,81.74
2019-01-27T20:23:55.853Z,81.52
2019-01-27T20:29:31.620Z,81.71
2019-01-27T20:35:10.872Z,81.29
2019-01-27T20:40:35.938Z,81.58
2019-01-27T20:45:59.064Z,82.29
2019-01-27T20:51:34.786Z,81.96
2019-01-27T20:56:45.485Z,81.80
2019-01-27T21:02:24.930Z,81.72
2019-01-27T21:08:00.854Z,83.08
2019-01-27T21:13:11.218Z,82.94
2019-01-27T21:18:26.859Z,82.87
2019-01-27T21:23:31.435Z,82.54
2019-01-27T21:28:36.469Z,82.26
2019-01-27T21:33:40.533Z,83.07
2019-01-27T21:38:45.721Z,83.30
2019-01-27T21:43:50.866Z,82.34
2019-01-27T21:48:58.002Z,82.43
2019-01-27T21:54:03.474Z,81.96
2019-01-27T21:59:07.795Z,81.48
2019-01-27T22:04:12.543Z,81.58
2019-01-27T22:09:18.122Z,81.75
2019-01-27T22:14:22.138Z,82.05
2019-01-27T22:19:26.703Z,81.76
2019-01-27T22:24:32.579Z,81.52
2019-01-27T22:29:37.783Z,82.05
2019-01-27T22:34:45.521Z,81.84
2019-01-27T22:39:50.543Z,82.48
2019-01-27T22:44:56.050Z,83.24
2019-01-27T22:50:01.633Z,83.78
2019-01-27T22:55:07.103Z,83.98
2019-01-27T23:00:21.503Z,84.08
2019-01-27T23:05:35.782Z,85.62
2019-01-27T23:10:40.246Z,87.52
2019-01-27T23:15:44.725Z,88.70
2019-01-27T23:20:48.575Z,89.06
2019-01-27T23:25:53.678Z,88.62
2019-01-27T23:31:01.939Z,89.36
2019-01-27T23:36:06.683Z,89.95
2019-01-27T23:41:11.247Z,90.23
2019-01-27T23:46:16.291Z,90.23
2019-01-27T23:51:22.294Z,90.60
2019-01-27T23:56:28.300Z,90.80
